Time;durP1;ratioP1;P1;durP2;ratioP2;P2;SDS_P1;SDS_P2;PMS_P1;PMS_P2;Temp;Humidity;BMP_temperature;BMP_pressure;BME280_temperature;BME280_humidity;BME280_pressure;Samples;Min_cycle;Max_cycle;Signal;HPM_P1;HPM_P2
2021/12/14 00:01:18;;;;;;;442.40;187.85;;;-0.50;99.90;;;;;;5052333;28;20017;-77
2021/12/14 00:03:47;;;;;;;450.55;191.80;;;-0.50;99.90;;;;;;5052272;27;20029;-76
2021/12/14 00:06:14;;;;;;;442.63;180.73;;;-0.50;99.90;;;;;;5051016;28;20493;-75
2021/12/14 00:08:53;;;;;;;449.08;178.57;;;-0.40;99.90;;;;;;5050971;27;20048;-76
2021/12/14 00:16:49;;;;;;;424.55;165.73;;;-0.50;99.90;;;;;;5052075;28;20094;-76
2021/12/14 00:19:17;;;;;;;431.98;175.80;;;-0.50;99.90;;;;;;5052076;28;20056;-76
2021/12/14 00:21:49;;;;;;;419.67;167.23;;;-0.50;99.90;;;;;;5050856;28;20049;-76
2021/12/14 00:24:15;;;;;;;436.05;172.40;;;-0.40;99.90;;;;;;5050606;28;20018;-76
2021/12/14 00:26:50;;;;;;;422.98;173.15;;;-0.40;99.90;;;;;;5050692;28;20025;-77
2021/12/14 00:29:21;;;;;;;413.73;162.48;;;-0.40;99.90;;;;;;5051966;28;20436;-76
2021/12/14 00:31:48;;;;;;;425.90;171.90;;;-0.40;99.90;;;;;;5050771;28;20021;-75
2021/12/14 00:34:22;;;;;;;425.70;171.57;;;-0.40;99.90;;;;;;5051868;28;20029;-75
2021/12/14 00:36:49;;;;;;;425.50;178.27;;;-0.50;99.90;;;;;;5051889;28;20116;-75
2021/12/14 00:39:15;;;;;;;398.30;162.68;;;-0.50;99.90;;;;;;5049504;28;20021;-76
2021/12/14 00:41:42;;;;;;;418.83;166.32;;;-0.50;99.90;;;;;;5051858;28;20101;-76
2021/12/14 00:44:10;;;;;;;430.08;173.18;;;-0.50;99.90;;;;;;5051901;28;20033;-76
2021/12/14 00:46:37;;;;;;;382.50;156.85;;;-0.50;99.90;;;;;;5050498;28;20442;-76
2021/12/14 00:49:06;;;;;;;421.05;164.63;;;-0.50;99.90;;;;;;5050390;28;20029;-76
2021/12/14 00:51:33;;;;;;;394.48;160.20;;;-0.50;99.90;;;;;;5050338;28;20021;-75
2021/12/14 00:54:01;;;;;;;385.33;155.15;;;-0.50;99.90;;;;;;5050259;28;20085;-76
2021/12/14 00:56:27;;;;;;;398.15;161.43;;;-0.50;99.90;;;;;;5051408;28;20063;-75
2021/12/14 00:58:52;;;;;;;412.20;169.57;;;-0.50;99.90;;;;;;5052165;28;20463;-75
2021/12/14 01:01:26;;;;;;;367.35;153.55;;;-0.40;99.90;;;;;;5050102;28;20069;-77
2021/12/14 01:03:56;;;;;;;383.17;149.55;;;-0.50;99.90;;;;;;5030301;28;20427;-76
2021/12/14 01:06:24;;;;;;;381.77;149.68;;;-0.50;99.90;;;;;;5031587;28;20022;-76
2021/12/14 01:08:51;;;;;;;375.60;151.02;;;-0.50;99.90;;;;;;5030232;28;20018;-76
2021/12/14 01:11:28;;;;;;;387.98;160.38;;;-0.50;99.90;;;;;;5031488;28;20025;-76
2021/12/14 01:14:02;;;;;;;361.00;149.55;;;-0.50;99.90;;;;;;5030415;28;20033;-76
2021/12/14 01:16:49;;;;;;;375.90;159.00;;;-0.50;99.90;;;;;;5030221;28;20041;-77
2021/12/14 01:19:21;;;;;;;403.95;163.30;;;-0.50;99.90;;;;;;5031248;28;20104;-77
2021/12/14 01:27:10;;;;;;;416.05;168.50;;;-0.50;99.90;;;;;;5031415;28;20439;-77
2021/12/14 01:29:37;;;;;;;429.15;169.23;;;-0.50;99.90;;;;;;5031195;28;20116;-77
2021/12/14 01:32:03;;;;;;;407.17;174.15;;;-0.50;99.90;;;;;;5029974;28;20022;-77
2021/12/14 01:34:31;;;;;;;412.88;170.40;;;-0.50;99.90;;;;;;5031130;28;20026;-76
2021/12/14 01:37:03;;;;;;;417.67;170.02;;;-0.50;99.90;;;;;;5029760;28;20429;-77
2021/12/14 01:39:48;;;;;;;414.58;165.90;;;-0.50;99.90;;;;;;5030132;28;20061;-76
2021/12/14 01:42:20;;;;;;;430.25;178.90;;;-0.50;99.90;;;;;;5031055;28;20018;-77
2021/12/14 01:44:51;;;;;;;443.67;170.50;;;-0.50;99.90;;;;;;5030919;28;20037;-77
2021/12/14 01:47:22;;;;;;;433.52;176.30;;;-0.50;99.90;;;;;;5029726;28;20053;-76
2021/12/14 01:49:49;;;;;;;446.30;180.55;;;-0.50;99.90;;;;;;5029492;28;20463;-76
2021/12/14 01:52:23;;;;;;;426.80;171.88;;;-0.50;99.90;;;;;;5029633;28;20094;-76
2021/12/14 01:54:53;;;;;;;426.52;173.98;;;-0.50;99.90;;;;;;5030765;27;20029;-76
2021/12/14 01:57:22;;;;;;;416.92;176.07;;;-0.50;99.90;;;;;;5029464;28;20411;-76
2021/12/14 01:59:54;;;;;;;439.63;181.32;;;-0.50;99.90;;;;;;5029360;28;20033;-76
2021/12/14 02:02:32;;;;;;;426.98;171.75;;;-0.40;99.90;;;;;;5030788;28;20021;-76
2021/12/14 02:05:00;;;;;;;447.75;176.13;;;-0.40;99.90;;;;;;5030724;28;20100;-76
2021/12/14 02:07:27;;;;;;;454.27;179.52;;;-0.40;99.90;;;;;;5030627;28;20391;-76
2021/12/14 02:09:57;;;;;;;427.25;174.30;;;-0.40;99.90;;;;;;5029328;28;20026;-76
2021/12/14 02:12:25;;;;;;;437.30;175.13;;;-0.50;99.90;;;;;;5030643;28;20025;-77
2021/12/14 02:14:52;;;;;;;422.38;168.25;;;-0.50;99.90;;;;;;5030830;28;20014;-76
2021/12/14 02:17:21;;;;;;;426.50;170.73;;;-0.50;99.90;;;;;;5030463;28;20048;-77
2021/12/14 02:19:48;;;;;;;412.45;167.75;;;-0.40;99.90;;;;;;5029210;28;20086;-76
2021/12/14 02:22:14;;;;;;;421.45;172.60;;;-0.50;99.90;;;;;;5030481;28;20455;-77
2021/12/14 02:24:44;;;;;;;424.60;169.13;;;-0.50;99.90;;;;;;5029114;28;20117;-77
2021/12/14 02:27:09;;;;;;;424.27;172.25;;;-0.50;99.90;;;;;;5030334;28;20075;-77
2021/12/14 02:29:39;;;;;;;441.90;173.10;;;-0.40;99.90;;;;;;5030137;28;20025;-77
2021/12/14 02:32:09;;;;;;;458.98;176.85;;;-0.50;99.90;;;;;;5029048;28;20025;-77
2021/12/14 02:34:48;;;;;;;452.52;178.40;;;-0.50;99.90;;;;;;5028973;28;20385;-77
2021/12/14 02:37:15;;;;;;;466.23;175.50;;;-0.50;99.90;;;;;;5030244;28;20112;-77
2021/12/14 02:42:30;;;;;;;478.25;188.27;;;-0.50;99.90;;;;;;5030400;28;20479;-77
2021/12/14 02:44:57;;;;;;;498.90;197.10;;;-0.50;99.90;;;;;;5029113;28;20069;-77
2021/12/14 02:47:24;;;;;;;453.45;174.18;;;-0.50;99.90;;;;;;5030062;28;20026;-77
2021/12/14 02:49:50;;;;;;;476.63;179.35;;;-0.50;99.90;;;;;;5028794;28;20065;-75
2021/12/14 02:52:28;;;;;;;492.23;185.98;;;-0.40;99.90;;;;;;5028762;28;20022;-75
2021/12/14 02:55:05;;;;;;;494.45;184.88;;;-0.40;99.90;;;;;;5029009;28;20061;-76
2021/12/14 02:57:36;;;;;;;459.23;177.52;;;-0.40;99.90;;;;;;5028652;28;20033;-76
2021/12/14 03:00:09;;;;;;;524.65;205.07;;;-0.40;99.90;;;;;;5028684;28;20108;-76
2021/12/14 03:02:35;;;;;;;521.53;209.90;;;-0.40;99.90;;;;;;5029057;28;20542;-76
2021/12/14 03:05:10;;;;;;;501.23;202.73;;;-0.40;99.90;;;;;;5028616;28;20021;-76
2021/12/14 03:07:43;;;;;;;519.03;197.63;;;-0.40;99.90;;;;;;5029926;28;20096;-76
2021/12/14 03:12:47;;;;;;;492.90;193.93;;;-0.40;99.90;;;;;;5030165;28;20036;-76
2021/12/14 03:15:25;;;;;;;490.13;194.52;;;-0.40;99.90;;;;;;5028291;28;20014;-76
2021/12/14 03:17:55;;;;;;;481.63;188.40;;;-0.30;99.90;;;;;;5029795;28;20082;-76
2021/12/14 03:20:34;;;;;;;484.13;188.93;;;-0.30;99.90;;;;;;5028387;28;20026;-76
2021/12/14 03:23:10;;;;;;;508.02;198.43;;;-0.30;99.90;;;;;;5029779;28;20021;-76
2021/12/14 03:25:39;;;;;;;469.25;178.80;;;-0.30;99.90;;;;;;5029516;28;20030;-77
2021/12/14 03:28:06;;;;;;;463.30;181.35;;;-0.30;99.90;;;;;;5028354;28;20067;-77
2021/12/14 03:30:39;;;;;;;472.23;167.00;;;-0.30;99.90;;;;;;5028228;28;20026;-76
2021/12/14 03:33:08;;;;;;;465.05;174.48;;;-0.30;99.90;;;;;;5029638;28;20025;-76
2021/12/14 03:36:06;;;;;;;464.80;174.52;;;-0.30;99.90;;;;;;5029321;28;20072;-76
2021/12/14 03:38:37;;;;;;;474.15;172.57;;;-0.30;99.90;;;;;;5029497;28;20090;-77
2021/12/14 03:41:10;;;;;;;481.13;178.60;;;-0.30;99.90;;;;;;5028230;28;20026;-77
2021/12/14 03:43:36;;;;;;;;;;;-0.30;99.90;;;;;;5029879;28;20108;-76
2021/12/14 03:46:02;;;;;;;477.58;163.05;;;-0.30;99.90;;;;;;5028145;28;19905;-77
2021/12/14 03:48:30;;;;;;;492.95;176.70;;;-0.30;99.90;;;;;;5028005;28;20025;-77
2021/12/14 03:50:56;;;;;;;530.78;193.18;;;-0.30;99.90;;;;;;5027963;28;20383;-76
2021/12/14 03:53:22;;;;;;;631.10;215.70;;;-0.30;99.90;;;;;;5029259;28;20021;-77
2021/12/14 03:56:01;;;;;;;606.78;204.02;;;-0.40;99.90;;;;;;5027916;28;20033;-76
2021/12/14 03:58:35;;;;;;;559.83;196.57;;;-0.40;99.90;;;;;;5028002;28;20112;-77
2021/12/14 04:01:12;;;;;;;525.58;193.57;;;-0.30;99.90;;;;;;5027954;28;20085;-77
2021/12/14 04:03:38;;;;;;;698.25;235.40;;;-0.30;99.90;;;;;;5029162;28;20070;-77
2021/12/14 04:06:05;;;;;;;557.92;203.35;;;-0.40;99.90;;;;;;5027934;28;20393;-77
2021/12/14 04:08:32;;;;;;;692.88;238.38;;;-0.30;99.90;;;;;;5027804;28;20033;-76
2021/12/14 04:11:02;;;;;;;802.20;250.30;;;-0.30;99.90;;;;;;5029025;28;20067;-76
2021/12/14 04:13:32;;;;;;;568.05;201.02;;;-0.30;99.90;;;;;;5029552;28;20428;-76
2021/12/14 04:15:58;;;;;;;552.85;201.68;;;-0.30;99.90;;;;;;5032246;28;20540;-76
2021/12/14 04:18:28;;;;;;;782.90;247.95;;;-0.30;99.90;;;;;;5032383;28;20104;-77
2021/12/14 04:20:55;;;;;;;515.97;189.88;;;-0.30;99.90;;;;;;5032342;28;20066;-76
2021/12/14 04:23:26;;;;;;;589.03;213.80;;;-0.30;99.90;;;;;;5031070;28;20022;-77
2021/12/14 04:25:55;;;;;;;561.83;208.45;;;-0.30;99.90;;;;;;5032205;28;20435;-76
2021/12/14 04:28:24;;;;;;;591.40;207.40;;;-0.30;99.90;;;;;;5032213;28;20021;-76
2021/12/14 04:30:50;;;;;;;699.28;247.65;;;-0.30;99.90;;;;;;5030873;28;20028;-76
2021/12/14 04:33:21;;;;;;;660.78;232.52;;;-0.30;99.90;;;;;;5032213;28;20025;-78
2021/12/14 04:35:48;;;;;;;605.95;214.90;;;-0.40;99.90;;;;;;5030794;28;20376;-76
2021/12/14 04:38:24;;;;;;;591.80;218.00;;;-0.40;99.90;;;;;;5030772;28;20025;-76
2021/12/14 04:52:08;;;;;;;892.10;325.98;;;-0.40;99.90;;;;;;5052046;28;20064;-77
2021/12/14 04:54:45;;;;;;;775.00;293.30;;;-0.30;99.90;;;;;;5051627;28;20506;-76
2021/12/14 04:57:25;;;;;;;917.45;316.02;;;-0.30;99.90;;;;;;5051614;28;20041;-76
2021/12/14 04:59:53;;;;;;;751.83;272.13;;;-0.30;99.90;;;;;;5050341;27;20049;-76
2021/12/14 05:02:29;;;;;;;725.10;248.00;;;-0.30;99.90;;;;;;5050383;28;20051;-77
2021/12/14 05:04:56;;;;;;;598.05;212.73;;;-0.30;99.90;;;;;;5050285;28;20017;-76
2021/12/14 05:09:52;;;;;;;678.85;243.10;;;-0.30;99.90;;;;;;5051752;28;20064;-76
2021/12/14 05:12:23;;;;;;;657.80;238.70;;;-0.30;99.90;;;;;;5051434;28;20062;-77
2021/12/14 05:14:49;;;;;;;606.53;223.98;;;-0.30;99.90;;;;;;5050158;28;20050;-76
2021/12/14 05:17:23;;;;;;;589.38;215.05;;;-0.30;99.90;;;;;;5050023;28;20148;-76
2021/12/14 05:19:51;;;;;;;708.03;251.13;;;-0.30;99.90;;;;;;5051351;28;20056;-76
2021/12/14 05:22:20;;;;;;;695.85;231.00;;;-0.30;99.90;;;;;;5050008;27;20021;-76
2021/12/14 05:24:52;;;;;;;576.08;195.52;;;-0.30;99.90;;;;;;5049421;28;20021;-76
2021/12/14 05:27:28;;;;;;;642.60;231.63;;;-0.30;99.90;;;;;;5049995;28;20040;-77
2021/12/14 05:30:01;;;;;;;674.40;221.00;;;-0.30;99.90;;;;;;5049882;27;20025;-77
2021/12/14 05:32:27;;;;;;;729.78;230.18;;;-0.30;99.90;;;;;;5049857;28;20036;-77
2021/12/14 05:34:53;;;;;;;694.35;225.25;;;-0.30;99.90;;;;;;5049787;28;20044;-77
2021/12/14 05:37:24;;;;;;;667.55;212.52;;;-0.30;99.90;;;;;;5049656;28;20410;-77
2021/12/14 05:39:59;;;;;;;693.85;222.15;;;-0.30;99.90;;;;;;5049714;28;20049;-76
2021/12/14 05:45:13;;;;;;;567.17;191.32;;;-0.40;99.90;;;;;;5051509;28;20040;-76
2021/12/14 05:47:45;;;;;;;535.85;185.88;;;-0.30;99.90;;;;;;5050869;28;20458;-76
2021/12/14 05:50:18;;;;;;;674.75;219.10;;;-0.30;99.90;;;;;;5045026;28;20017;-77
2021/12/14 05:52:44;;;;;;;567.80;196.80;;;-0.30;99.90;;;;;;5049236;28;20021;-77
2021/12/14 05:55:10;;;;;;;645.53;221.48;;;-0.30;99.90;;;;;;5050351;28;20439;-76
2021/12/14 05:57:37;;;;;;;726.88;238.70;;;-0.30;99.90;;;;;;5049207;28;20044;-77
2021/12/14 06:00:05;;;;;;;610.00;212.52;;;-0.30;99.90;;;;;;5048591;28;20501;-76
2021/12/14 06:02:30;;;;;;;1153.53;474.73;;;-0.30;99.90;;;;;;5049323;28;20443;-78
2021/12/14 06:04:56;;;;;;;1196.47;442.85;;;-0.30;99.90;;;;;;5049877;28;20039;-77
2021/12/14 06:07:24;;;;;;;851.50;291.95;;;-0.30;99.90;;;;;;5048504;28;20054;-77
2021/12/14 06:09:51;;;;;;;639.08;225.85;;;-0.30;99.90;;;;;;5048236;28;20413;-77
2021/12/14 06:12:25;;;;;;;609.00;212.90;;;-0.30;99.90;;;;;;5048450;28;20508;-77
2021/12/14 06:14:54;;;;;;;541.70;197.20;;;-0.30;99.90;;;;;;5048984;28;20025;-77
2021/12/14 06:17:29;;;;;;;568.22;203.18;;;-0.20;99.90;;;;;;5049950;28;20592;-77
2021/12/14 06:20:07;;;;;;;517.58;193.50;;;-0.20;99.90;;;;;;5048810;27;20089;-76
2021/12/14 06:22:33;;;;;;;639.05;202.30;;;-0.20;99.90;;;;;;5029229;28;20025;-77
2021/12/14 06:25:11;;;;;;;581.42;196.10;;;-0.20;99.90;;;;;;5041710;27;20128;-77
2021/12/14 06:27:37;;;;;;;682.05;227.18;;;-0.20;99.90;;;;;;5067056;27;20476;-76
2021/12/14 06:30:08;;;;;;;577.30;199.98;;;-0.20;99.90;;;;;;5104312;27;20044;-76
2021/12/14 06:32:47;;;;;;;606.33;194.30;;;-0.20;99.90;;;;;;5075593;27;20486;-76
2021/12/14 06:35:20;;;;;;;534.38;181.10;;;-0.20;99.90;;;;;;5049756;27;20394;-76
2021/12/14 06:41:09;;;;;;;575.70;192.45;;;-0.20;99.90;;;;;;5045683;27;20026;-76
2021/12/14 06:43:37;;;;;;;601.10;213.25;;;-0.20;99.90;;;;;;5026931;27;20029;-77
2021/12/14 06:46:11;;;;;;;625.75;228.30;;;-0.20;99.90;;;;;;5027840;28;20025;-77
2021/12/14 06:48:41;;;;;;;586.35;195.27;;;-0.20;99.90;;;;;;5028065;27;20028;-77
2021/12/14 06:51:06;;;;;;;656.47;232.05;;;-0.20;99.90;;;;;;5066706;28;20013;-76
2021/12/14 06:53:33;;;;;;;592.85;235.85;;;-0.20;99.90;;;;;;5069657;28;20537;-77
2021/12/14 06:56:01;;;;;;;592.95;261.60;;;-0.20;99.90;;;;;;5068289;28;20088;-78
2021/12/14 06:58:31;;;;;;;623.90;252.05;;;-0.20;99.90;;;;;;5068530;28;20524;-77
2021/12/14 07:01:05;;;;;;;592.10;227.00;;;-0.20;99.90;;;;;;5065610;28;20035;-76
2021/12/14 07:03:45;;;;;;;657.53;252.98;;;-0.20;99.90;;;;;;5049658;28;20021;-76
2021/12/14 07:06:25;;;;;;;535.88;192.68;;;-0.10;99.90;;;;;;5049671;28;20028;-78
2021/12/14 07:08:52;;;;;;;508.17;187.98;;;-0.10;99.90;;;;;;5049308;28;20028;-78
2021/12/14 07:11:21;;;;;;;499.02;189.75;;;-0.10;99.90;;;;;;5048420;28;20182;-78
2021/12/14 07:13:47;;;;;;;433.30;155.02;;;0.00;99.90;;;;;;5048903;28;20029;-77
2021/12/14 07:16:30;;;;;;;464.00;167.77;;;0.00;99.90;;;;;;5046053;28;20025;-78
2021/12/14 07:18:59;;;;;;;512.85;183.30;;;0.00;99.90;;;;;;5047341;28;20075;-77
2021/12/14 07:21:49;;;;;;;509.70;217.40;;;0.10;99.90;;;;;;5047407;28;20017;-77
2021/12/14 07:24:23;;;;;;;436.60;167.57;;;0.10;99.90;;;;;;5047490;28;20025;-78
2021/12/14 07:26:51;;;;;;;451.08;157.20;;;0.10;99.90;;;;;;5048446;28;20026;-78
2021/12/14 07:29:23;;;;;;;411.77;146.45;;;0.10;99.90;;;;;;5047529;28;20025;-78
2021/12/14 07:31:49;;;;;;;464.20;161.52;;;0.10;99.90;;;;;;5048075;28;20371;-78
2021/12/14 07:34:15;;;;;;;433.77;154.48;;;0.20;99.90;;;;;;5049028;28;20040;-78
2021/12/14 07:36:41;;;;;;;421.67;153.02;;;0.20;99.90;;;;;;5047570;28;20044;-78
2021/12/14 07:39:08;;;;;;;419.40;148.85;;;0.20;99.90;;;;;;5049199;28;20032;-78
2021/12/14 07:41:46;;;;;;;422.95;152.48;;;0.20;99.90;;;;;;5049218;28;20036;-78
2021/12/14 07:44:22;;;;;;;458.50;170.38;;;0.20;99.90;;;;;;5049465;28;20036;-78
2021/12/14 07:47:10;;;;;;;440.77;155.07;;;0.20;99.90;;;;;;5047905;28;20375;-78
2021/12/14 07:49:54;;;;;;;460.35;162.88;;;0.30;99.90;;;;;;5049940;28;20036;-78
2021/12/14 07:52:22;;;;;;;421.20;147.18;;;0.30;99.90;;;;;;5052606;28;20017;-78
2021/12/14 07:54:51;;;;;;;383.95;138.55;;;0.30;99.90;;;;;;5052460;28;20018;-77
2021/12/14 07:57:25;;;;;;;394.92;142.00;;;0.30;99.90;;;;;;5052531;28;20033;-78
2021/12/14 07:59:59;;;;;;;364.38;134.20;;;0.40;99.90;;;;;;5051192;28;20069;-77
2021/12/14 08:02:31;;;;;;;429.63;146.68;;;0.40;99.90;;;;;;5052458;28;20029;-77
2021/12/14 08:05:06;;;;;;;351.00;127.15;;;0.40;99.90;;;;;;5051020;28;20033;-78
2021/12/14 08:07:37;;;;;;;396.67;144.50;;;0.40;99.90;;;;;;5052414;28;20035;-78
2021/12/14 08:10:24;;;;;;;332.48;128.40;;;0.40;99.90;;;;;;5052320;28;20022;-78
2021/12/14 08:12:51;;;;;;;327.42;124.35;;;0.40;99.90;;;;;;5051010;28;20029;-78
2021/12/14 08:15:36;;;;;;;360.38;125.90;;;0.40;99.90;;;;;;5052278;28;20067;-78
2021/12/14 08:18:07;;;;;;;315.83;121.55;;;0.40;99.90;;;;;;5051107;27;20032;-78
2021/12/14 08:20:35;;;;;;;360.80;125.35;;;0.50;99.90;;;;;;5031535;28;20102;-79
2021/12/14 08:23:20;;;;;;;395.50;140.38;;;0.50;99.90;;;;;;5031743;28;20034;-77
2021/12/14 08:25:46;;;;;;;423.02;146.10;;;0.60;99.90;;;;;;5030330;28;20040;-78
2021/12/14 08:28:13;;;;;;;382.52;138.63;;;0.60;99.90;;;;;;5031699;28;20526;-78
2021/12/14 08:30:51;;;;;;;369.27;134.93;;;0.70;99.90;;;;;;5031465;28;20065;-78
2021/12/14 08:33:19;;;;;;;366.33;130.55;;;0.70;99.90;;;;;;5031684;28;20052;-78
2021/12/14 08:35:46;;;;;;;307.02;118.38;;;0.70;99.90;;;;;;5030829;28;20034;-78
2021/12/14 08:38:15;;;;;;;317.80;118.43;;;0.80;99.90;;;;;;5030079;28;20029;-79
2021/12/14 08:40:45;;;;;;;344.50;125.82;;;0.80;99.90;;;;;;5031120;28;20033;-78
2021/12/14 08:43:20;;;;;;;395.52;152.48;;;0.80;99.90;;;;;;5030378;28;20087;-78
2021/12/14 08:45:51;;;;;;;309.65;119.32;;;0.80;99.90;;;;;;5031242;28;20026;-78
2021/12/14 08:48:29;;;;;;;308.25;118.10;;;0.80;99.90;;;;;;5030129;28;20573;-78
2021/12/14 08:51:15;;;;;;;362.15;128.13;;;0.80;99.90;;;;;;5049145;28;20025;-77
2021/12/14 08:53:46;;;;;;;314.75;121.72;;;0.80;99.90;;;;;;5049601;28;20033;-78
2021/12/14 08:56:13;;;;;;;330.65;110.10;;;0.80;99.90;;;;;;5051207;28;20478;-78
2021/12/14 08:58:40;;;;;;;316.55;113.25;;;0.80;99.90;;;;;;5049191;28;20037;-77
2021/12/14 09:01:16;;;;;;;301.30;109.20;;;0.80;99.90;;;;;;5048886;28;20013;-78
2021/12/14 09:03:53;;;;;;;289.70;107.32;;;0.80;99.90;;;;;;5050356;28;20017;-78
2021/12/14 09:06:22;;;;;;;291.67;102.10;;;0.80;99.90;;;;;;5051348;28;20021;-77
2021/12/14 09:08:50;;;;;;;287.20;100.30;;;0.90;99.90;;;;;;5050222;28;20013;-78
2021/12/14 09:11:20;;;;;;;264.83;101.32;;;1.00;99.90;;;;;;5050196;28;20049;-77
2021/12/14 09:13:46;;;;;;;265.95;98.25;;;1.00;99.90;;;;;;5050064;27;20029;-78
2021/12/14 09:16:20;;;;;;;268.20;97.65;;;1.10;99.90;;;;;;5049866;28;20553;-78
2021/12/14 09:18:50;;;;;;;222.23;84.80;;;1.20;99.90;;;;;;5049808;28;20573;-78
2021/12/14 09:21:22;;;;;;;208.10;85.15;;;1.20;99.90;;;;;;5050096;28;20025;-78
2021/12/14 09:23:51;;;;;;;188.55;72.97;;;1.30;99.90;;;;;;5050032;28;20014;-78
2021/12/14 09:26:23;;;;;;;171.13;67.07;;;1.30;99.90;;;;;;5048904;28;20021;-78
2021/12/14 09:28:50;;;;;;;162.25;67.30;;;1.30;99.90;;;;;;5047094;28;20025;-78
2021/12/14 09:31:24;;;;;;;201.18;71.82;;;1.30;99.90;;;;;;5047022;28;20017;-78
2021/12/14 09:33:51;;;;;;;215.13;85.28;;;1.30;99.90;;;;;;5047027;28;20053;-77
2021/12/14 09:36:17;;;;;;;140.60;61.33;;;1.30;99.90;;;;;;5046841;28;20029;-78
2021/12/14 09:38:51;;;;;;;144.13;58.70;;;1.30;99.90;;;;;;5048591;28;20018;-78
2021/12/14 09:41:21;;;;;;;159.57;61.38;;;1.40;99.90;;;;;;5048882;28;20028;-78
2021/12/14 09:43:48;;;;;;;147.82;57.45;;;1.40;99.90;;;;;;5049602;28;20029;-78
2021/12/14 09:46:16;;;;;;;117.85;49.42;;;1.40;99.90;;;;;;5050936;28;20514;-78
2021/12/14 09:48:59;;;;;;;103.15;47.15;;;1.40;99.90;;;;;;5049651;28;20033;-78
2021/12/14 09:51:30;;;;;;;125.55;51.38;;;1.50;99.90;;;;;;5050877;28;20025;-78
2021/12/14 09:54:00;;;;;;;117.25;49.58;;;1.50;99.90;;;;;;5049543;28;20013;-78
2021/12/14 09:56:32;;;;;;;101.57;42.22;;;1.50;99.90;;;;;;5050694;28;20032;-78
2021/12/14 09:59:00;;;;;;;88.72;36.05;;;1.60;99.90;;;;;;5050768;28;20082;-78
2021/12/14 10:01:39;;;;;;;86.97;36.50;;;1.60;99.90;;;;;;5049402;28;20021;-78
2021/12/14 10:04:10;;;;;;;99.10;42.72;;;1.60;99.90;;;;;;5050703;28;20033;-78
2021/12/14 10:06:36;;;;;;;90.85;39.00;;;1.60;99.90;;;;;;5050419;28;20074;-78
2021/12/14 10:09:12;;;;;;;93.00;39.97;;;1.70;99.90;;;;;;5049303;28;20025;-78
2021/12/14 10:12:04;;;;;;;77.25;33.85;;;1.70;99.90;;;;;;5049238;28;20017;-78
2021/12/14 10:14:37;;;;;;;88.30;35.22;;;1.70;99.90;;;;;;5050508;28;20535;-78
2021/12/14 10:17:06;;;;;;;177.75;78.43;;;1.70;99.90;;;;;;5049208;28;20089;-78
2021/12/14 10:19:34;;;;;;;122.32;50.75;;;1.70;99.90;;;;;;5049082;28;20108;-78
2021/12/14 10:22:06;;;;;;;81.93;32.47;;;1.70;99.90;;;;;;5050395;28;20033;-78
2021/12/14 10:24:33;;;;;;;86.05;34.83;;;1.70;99.90;;;;;;5049077;28;20550;-78
2021/12/14 10:27:05;;;;;;;87.70;35.28;;;1.70;99.90;;;;;;5049096;28;20025;-78
2021/12/14 10:29:31;;;;;;;88.13;37.33;;;1.80;99.90;;;;;;5048954;28;20069;-78
2021/12/14 10:32:03;;;;;;;103.13;39.58;;;1.80;99.90;;;;;;5050251;28;20420;-78
2021/12/14 10:34:34;;;;;;;98.38;37.28;;;1.80;99.90;;;;;;5048942;28;20025;-78
2021/12/14 10:37:13;;;;;;;95.50;39.08;;;1.70;99.90;;;;;;5050168;28;20131;-75
2021/12/14 10:42:53;;;;;;;58.95;23.77;;;1.60;99.90;;;;;;5042335;28;20058;-76
2021/12/14 10:45:25;;;;;;;45.10;21.10;;;1.50;99.90;;;;;;5049928;28;20037;-75
2021/12/14 10:47:51;;;;;;;54.75;23.42;;;1.50;99.90;;;;;;5049978;28;20045;-76
2021/12/14 10:50:23;;;;;;;61.55;28.65;;;1.50;99.90;;;;;;5048767;28;20542;-76
2021/12/14 10:52:49;;;;;;;49.08;23.48;;;1.50;99.90;;;;;;5049278;27;20093;-76
2021/12/14 10:55:52;;;;;;;52.83;22.85;;;1.50;99.90;;;;;;5049884;28;20394;-76
2021/12/14 10:58:20;;;;;;;50.55;22.65;;;1.40;99.90;;;;;;4988739;28;20039;-76
2021/12/14 11:01:08;;;;;;;57.45;23.48;;;1.40;99.90;;;;;;5039104;28;20038;-76
2021/12/14 11:03:42;;;;;;;53.85;22.33;;;1.40;99.90;;;;;;5048598;27;20478;-76
2021/12/14 11:06:12;;;;;;;73.57;26.38;;;1.50;99.90;;;;;;5049686;28;20531;-76
2021/12/14 11:08:49;;;;;;;53.20;22.33;;;1.40;99.90;;;;;;5048424;27;20039;-76
2021/12/14 11:11:21;;;;;;;62.00;22.92;;;1.40;99.90;;;;;;5049788;28;20485;-76
2021/12/14 11:13:53;;;;;;;52.22;20.13;;;1.40;99.90;;;;;;5049723;28;20154;-76
2021/12/14 11:18:08;;;;;;;51.10;22.13;;;1.30;99.90;;;;;;5048315;28;20093;-76
2021/12/14 11:19:30;;;;;;;58.35;20.33;;;1.30;99.90;;;;;;5049459;28;20033;-76
2021/12/14 11:22:07;;;;;;;68.28;27.45;;;1.40;99.90;;;;;;5048436;28;20024;-76
2021/12/14 11:24:36;;;;;;;83.72;32.08;;;1.30;99.90;;;;;;5053095;28;20047;-76
2021/12/14 11:27:16;;;;;;;65.30;25.30;;;1.30;99.90;;;;;;5053125;28;20073;-76
2021/12/14 11:29:41;;;;;;;70.50;30.40;;;1.30;99.90;;;;;;5051612;28;20040;-76
2021/12/14 11:32:16;;;;;;;61.25;25.92;;;1.20;99.90;;;;;;5053000;28;20021;-76
2021/12/14 11:34:44;;;;;;;54.03;22.75;;;1.20;99.90;;;;;;5051440;27;20479;-76
2021/12/14 11:37:14;;;;;;;59.20;25.85;;;1.20;99.90;;;;;;5051592;27;20041;-76
2021/12/14 11:39:51;;;;;;;67.15;27.17;;;1.20;99.90;;;;;;5051982;27;20017;-76
2021/12/14 11:42:19;;;;;;;95.28;36.78;;;1.10;99.90;;;;;;5052955;28;20021;-76
2021/12/14 11:44:50;;;;;;;117.40;50.55;;;1.20;99.90;;;;;;5051426;28;20097;-76
2021/12/14 11:50:11;;;;;;;70.78;29.40;;;1.10;99.90;;;;;;5053119;28;20044;-76
2021/12/14 11:52:52;;;;;;;72.03;34.80;;;1.00;99.90;;;;;;5052730;28;20124;-76
2021/12/14 11:55:46;;;;;;;76.40;33.88;;;1.10;99.90;;;;;;5051323;28;20402;-76
2021/12/14 11:58:33;;;;;;;80.85;33.55;;;1.10;99.90;;;;;;5052708;28;20089;-76
2021/12/14 12:01:05;;;;;;;70.55;28.73;;;1.00;99.90;;;;;;5052551;28;20029;-76
2021/12/14 12:03:42;;;;;;;68.32;27.50;;;1.10;99.90;;;;;;5052561;28;20028;-76
2021/12/14 12:06:14;;;;;;;69.47;32.20;;;1.10;99.90;;;;;;5052416;28;20108;-75
2021/12/14 12:11:41;;;;;;;69.93;28.98;;;1.10;99.90;;;;;;5052701;28;20039;-77
2021/12/14 12:14:36;;;;;;;68.10;28.23;;;1.10;99.90;;;;;;5051095;28;20033;-76
2021/12/14 12:17:23;;;;;;;63.10;27.63;;;1.20;99.90;;;;;;5052313;28;20061;-76
2021/12/14 12:20:24;;;;;;;78.18;29.63;;;1.20;99.90;;;;;;5052326;28;20032;-76
2021/12/14 12:23:03;;;;;;;82.15;32.22;;;1.20;99.90;;;;;;5042406;28;20045;-76
2021/12/14 12:25:44;;;;;;;116.78;48.47;;;1.20;99.90;;;;;;5050781;28;20546;-76
2021/12/14 12:28:10;;;;;;;118.90;46.95;;;1.20;99.90;;;;;;5052143;28;20042;-76
2021/12/14 12:30:46;;;;;;;94.40;34.08;;;1.20;99.90;;;;;;5050651;28;20422;-76
2021/12/14 12:33:16;;;;;;;71.45;29.85;;;1.20;99.90;;;;;;5052027;28;20044;-76
2021/12/14 12:35:58;;;;;;;75.50;27.80;;;1.20;99.90;;;;;;5050546;28;20478;-76
2021/12/14 12:38:45;;;;;;;73.22;30.33;;;1.30;99.90;;;;;;5051834;27;20097;-76
2021/12/14 12:41:33;;;;;;;70.45;26.55;;;1.30;99.90;;;;;;5051953;28;20017;-76
2021/12/14 12:44:09;;;;;;;105.70;38.97;;;1.30;99.90;;;;;;5052077;28;20032;-76
2021/12/14 12:46:57;;;;;;;119.78;47.88;;;1.30;99.90;;;;;;5036742;28;20053;-76
2021/12/14 12:49:25;;;;;;;116.25;40.90;;;1.30;99.90;;;;;;5035805;28;20021;-76
2021/12/14 12:51:59;;;;;;;100.43;35.85;;;1.20;99.90;;;;;;5034540;28;20112;-76
2021/12/14 12:54:34;;;;;;;120.60;41.47;;;1.20;99.90;;;;;;5035548;28;20037;-76
2021/12/14 12:57:09;;;;;;;126.55;41.30;;;1.20;99.90;;;;;;5035954;28;20505;-76
2021/12/14 12:59:55;;;;;;;126.00;44.42;;;1.20;99.90;;;;;;5040021;28;20029;-76
2021/12/14 13:02:29;;;;;;;128.57;40.75;;;1.20;99.90;;;;;;5035587;28;20104;-76
2021/12/14 13:05:00;;;;;;;122.88;46.78;;;1.10;99.90;;;;;;5037138;28;20057;-76
2021/12/14 13:07:34;;;;;;;212.15;57.53;;;1.20;99.90;;;;;;5033993;28;20025;-76
2021/12/14 13:10:11;;;;;;;163.35;52.47;;;1.10;99.90;;;;;;5037830;28;20419;-76
2021/12/14 13:12:54;;;;;;;105.65;41.58;;;1.10;99.90;;;;;;5036512;28;20479;-76
2021/12/14 13:15:31;;;;;;;130.52;43.30;;;1.10;99.90;;;;;;5037140;28;20040;-76
2021/12/14 13:18:25;;;;;;;114.10;38.55;;;1.20;99.90;;;;;;5031964;28;20068;-76
2021/12/14 13:21:03;;;;;;;99.68;35.70;;;1.20;99.90;;;;;;5035635;28;20037;-75
2021/12/14 13:23:43;;;;;;;97.88;34.35;;;1.20;99.90;;;;;;5033569;28;20079;-76
2021/12/14 13:26:44;;;;;;;143.25;48.85;;;1.20;99.90;;;;;;5031994;28;20071;-75
2021/12/14 13:29:12;;;;;;;145.38;48.10;;;1.20;99.90;;;;;;5036450;28;20029;-76